createdAt,value
2019-05-12T00:01:29.747Z,11.30
2019-05-12T00:03:59.864Z,11.30
2019-05-12T00:06:29.985Z,11.30
2019-05-12T00:09:00.102Z,11.20
2019-05-12T00:11:30.349Z,11.20
2019-05-12T00:14:00.347Z,11.20
2019-05-12T00:16:30.459Z,11.10
2019-05-12T00:19:00.375Z,11.10
2019-05-12T00:21:30.492Z,11.10
2019-05-12T00:24:12.908Z,11.10
2019-05-12T00:26:43.635Z,11.10
2019-05-12T00:29:13.753Z,11.10
2019-05-12T00:31:44.077Z,11.00
2019-05-12T00:34:14.407Z,11.00
2019-05-12T00:36:44.532Z,11.00
2019-05-12T00:39:14.843Z,10.90
2019-05-12T00:41:44.963Z,10.90
2019-05-12T00:44:15.085Z,10.90
2019-05-12T00:46:45.410Z,10.90
2019-05-12T00:49:15.525Z,10.90
2019-05-12T00:51:45.851Z,10.90
2019-05-12T00:54:17.695Z,10.80
2019-05-12T00:56:48.258Z,10.80
2019-05-12T00:59:19.055Z,10.80
2019-05-12T01:01:49.604Z,10.80
2019-05-12T01:04:19.930Z,10.70
2019-05-12T01:06:51.978Z,10.70
2019-05-12T01:09:21.812Z,10.70
2019-05-12T01:11:51.925Z,10.70
2019-05-12T01:14:22.042Z,10.60
2019-05-12T01:16:52.164Z,10.60
2019-05-12T01:19:25.148Z,10.60
2019-05-12T01:21:55.275Z,10.60
2019-05-12T01:24:28.496Z,10.50
2019-05-12T01:26:58.583Z,10.50
2019-05-12T01:29:28.714Z,10.50
2019-05-12T01:32:00.577Z,10.50
2019-05-12T01:34:30.778Z,10.50
2019-05-12T01:37:19.337Z,10.40
2019-05-12T01:39:49.451Z,10.40
2019-05-12T01:42:19.586Z,10.40
2019-05-12T01:44:49.693Z,10.40
2019-05-12T01:47:20.011Z,10.30
2019-05-12T01:49:50.132Z,10.30
2019-05-12T01:52:20.250Z,10.30
2019-05-12T01:54:50.368Z,10.30
2019-05-12T01:57:20.495Z,10.20
2019-05-12T01:59:50.812Z,10.20
2019-05-12T02:02:21.138Z,10.20
2019-05-12T02:04:55.556Z,10.20
2019-05-12T02:07:27.925Z,10.10
2019-05-12T02:09:58.447Z,10.10
2019-05-12T02:12:28.821Z,10.10
2019-05-12T02:14:59.106Z,10.10
2019-05-12T02:17:29.222Z,10.00
2019-05-12T02:19:59.342Z,10.00
2019-05-12T02:22:29.461Z,10.00
2019-05-12T02:24:59.789Z,10.00
2019-05-12T02:27:30.739Z,10.00
2019-05-12T02:30:01.050Z,9.90
2019-05-12T02:32:43.495Z,9.90
2019-05-12T02:35:05.762Z,9.90
2019-05-12T02:37:35.766Z,9.90
2019-05-12T02:40:08.915Z,9.80
2019-05-12T02:42:39.018Z,9.80
2019-05-12T02:45:09.944Z,9.80
2019-05-12T02:47:40.075Z,9.80
2019-05-12T02:50:10.400Z,9.80
2019-05-12T02:52:44.129Z,9.70
2019-05-12T02:55:14.943Z,9.70
2019-05-12T02:57:46.489Z,9.70
2019-05-12T03:00:16.813Z,9.70
2019-05-12T03:02:49.808Z,9.60
2019-05-12T03:05:19.922Z,9.60
2019-05-12T03:07:50.860Z,9.60
2019-05-12T03:10:20.980Z,9.60
2019-05-12T03:12:51.097Z,9.50
2019-05-12T03:15:24.788Z,9.50
2019-05-12T03:17:54.623Z,9.50
2019-05-12T03:20:24.732Z,9.50
2019-05-12T03:22:55.488Z,9.50
2019-05-12T03:25:29.895Z,9.40
2019-05-12T03:27:57.547Z,9.40
2019-05-12T03:30:29.431Z,9.40
2019-05-12T03:32:59.218Z,9.40
2019-05-12T03:35:35.322Z,9.30
2019-05-12T03:38:04.077Z,9.30
2019-05-12T03:40:37.653Z,9.30
2019-05-12T03:43:05.425Z,9.30
2019-05-12T03:45:36.504Z,9.30
2019-05-12T03:48:07.100Z,9.30
2019-05-12T03:50:37.218Z,9.30
2019-05-12T03:53:10.810Z,9.20
2019-05-12T03:55:42.329Z,9.20
2019-05-12T03:58:10.650Z,9.20
2019-05-12T04:00:40.771Z,9.20
2019-05-12T04:03:10.891Z,9.20
2019-05-12T04:05:41.007Z,9.20
2019-05-12T04:08:11.125Z,9.10
2019-05-12T04:10:41.245Z,9.10
2019-05-12T04:13:14.752Z,9.10
2019-05-12T04:15:45.522Z,9.10
2019-05-12T04:18:16.380Z,9.10
2019-05-12T04:20:47.254Z,9.10
2019-05-12T04:23:17.375Z,9.10
2019-05-12T04:25:52.883Z,9.10
2019-05-12T04:28:19.252Z,9.10
2019-05-12T04:30:49.365Z,9.10
2019-05-12T04:33:19.490Z,9.10
2019-05-12T04:35:49.604Z,9.10
2019-05-12T04:38:19.723Z,9.10
2019-05-12T04:40:50.046Z,9.10
2019-05-12T04:43:20.168Z,9.00
2019-05-12T04:45:50.491Z,9.00
2019-05-12T04:48:21.587Z,9.10
2019-05-12T04:50:54.859Z,9.10
2019-05-12T04:53:25.129Z,9.10
2019-05-12T04:56:07.395Z,9.00
2019-05-12T04:58:27.037Z,9.00
2019-05-12T05:00:57.145Z,9.00
2019-05-12T05:03:27.271Z,9.00
2019-05-12T05:05:57.383Z,9.00
2019-05-12T05:08:27.712Z,9.00
2019-05-12T05:10:57.829Z,9.00
2019-05-12T05:13:28.161Z,9.00
2019-05-12T05:15:58.124Z,9.00
2019-05-12T05:18:28.184Z,9.00
2019-05-12T05:20:58.302Z,9.00
2019-05-12T05:23:28.421Z,9.00
2019-05-12T05:25:58.540Z,9.00
2019-05-12T05:28:28.660Z,9.00
2019-05-12T05:30:58.779Z,9.00
2019-05-12T05:33:28.898Z,9.00
2019-05-12T05:35:59.018Z,9.10
2019-05-12T05:38:29.061Z,9.10
2019-05-12T05:40:59.799Z,9.10
2019-05-12T05:43:30.811Z,9.10
2019-05-12T05:46:02.819Z,9.10
2019-05-12T05:48:35.075Z,9.10
2019-05-12T05:51:07.373Z,9.20
2019-05-12T05:53:35.795Z,9.20
2019-05-12T05:56:05.910Z,9.20
2019-05-12T05:58:40.120Z,9.20
2019-05-12T06:01:08.280Z,9.20
2019-05-12T06:03:38.725Z,9.30
2019-05-12T06:06:12.360Z,9.30
2019-05-12T06:08:40.601Z,9.30
2019-05-12T06:11:14.809Z,9.30
2019-05-12T06:13:44.335Z,9.40
2019-05-12T06:16:20.341Z,9.40
2019-05-12T06:18:45.789Z,9.50
2019-05-12T06:21:15.918Z,9.50
2019-05-12T06:23:46.027Z,9.50
2019-05-12T06:26:21.121Z,9.50
2019-05-12T06:28:47.645Z,9.50
2019-05-12T06:31:18.960Z,9.50
2019-05-12T06:33:53.630Z,9.50
2019-05-12T06:36:27.064Z,9.60
2019-05-12T06:38:54.935Z,9.60
2019-05-12T06:41:25.917Z,9.70
2019-05-12T06:43:56.401Z,9.70
2019-05-12T06:46:26.525Z,9.70
2019-05-12T06:49:00.884Z,9.70
2019-05-12T06:51:30.147Z,9.80
2019-05-12T06:54:00.811Z,9.80
2019-05-12T06:56:34.031Z,9.90
2019-05-12T06:59:09.987Z,9.90
2019-05-12T07:01:35.128Z,9.90
2019-05-12T07:04:08.688Z,10.00
2019-05-12T07:06:37.003Z,10.00
2019-05-12T07:09:09.806Z,10.10
2019-05-12T07:11:44.821Z,10.10
2019-05-12T07:14:18.875Z,10.20
2019-05-12T07:16:45.271Z,10.30
2019-05-12T07:19:22.496Z,10.30
2019-05-12T07:21:50.881Z,10.30
2019-05-12T07:24:19.934Z,10.40
2019-05-12T07:26:54.768Z,10.40
2019-05-12T07:29:23.718Z,10.50
2019-05-12T07:31:53.678Z,10.50
2019-05-12T07:34:27.897Z,10.60
2019-05-12T07:36:58.710Z,10.60
2019-05-12T07:39:30.467Z,10.70
2019-05-12T07:42:03.652Z,10.70
2019-05-12T07:44:39.894Z,10.80
2019-05-12T07:47:07.582Z,10.80
2019-05-12T07:49:38.713Z,10.90
2019-05-12T07:52:09.044Z,10.90
2019-05-12T07:54:39.607Z,10.90
2019-05-12T07:57:12.596Z,11.00
2019-05-12T07:59:43.667Z,11.10
2019-05-12T08:02:14.236Z,11.20
2019-05-12T08:04:44.776Z,11.20
2019-05-12T08:07:19.850Z,11.20
2019-05-12T08:09:46.640Z,11.20
2019-05-12T08:12:20.951Z,11.30
2019-05-12T08:14:48.306Z,11.60
2019-05-12T08:17:19.667Z,11.60
2019-05-12T08:19:50.186Z,11.50
2019-05-12T08:22:25.114Z,11.50
2019-05-12T08:24:53.727Z,11.50
2019-05-12T08:27:23.615Z,11.50
2019-05-12T08:30:01.099Z,11.50
2019-05-12T08:32:27.267Z,11.60
2019-05-12T08:34:57.044Z,11.70
2019-05-12T08:37:27.368Z,11.70
2019-05-12T08:40:03.448Z,11.80
2019-05-12T08:42:29.249Z,11.80
2019-05-12T08:44:59.378Z,11.80
2019-05-12T08:47:35.599Z,11.80
2019-05-12T08:50:01.243Z,11.80
2019-05-12T08:52:37.022Z,11.90
2019-05-12T08:55:04.249Z,11.90
2019-05-12T08:57:40.631Z,12.10
2019-05-12T09:00:08.572Z,12.10
2019-05-12T09:02:39.850Z,12.20
2019-05-12T09:05:10.765Z,12.20
2019-05-12T09:07:40.896Z,12.20
2019-05-12T09:10:11.206Z,12.20
2019-05-12T09:12:41.323Z,12.30
2019-05-12T09:15:13.429Z,12.30
2019-05-12T09:17:52.384Z,12.30
2019-05-12T09:20:14.961Z,12.40
2019-05-12T09:22:45.069Z,12.40
2019-05-12T09:25:15.245Z,12.50
2019-05-12T09:27:49.358Z,12.50
2019-05-12T09:30:20.145Z,12.50
2019-05-12T09:32:55.987Z,12.60
2019-05-12T09:35:28.677Z,12.60
2019-05-12T09:37:56.440Z,12.70
2019-05-12T09:40:26.763Z,12.70
2019-05-12T09:43:00.166Z,12.70
2019-05-12T09:45:28.642Z,12.70
2019-05-12T09:48:03.776Z,12.80
2019-05-12T09:50:30.726Z,13.00
2019-05-12T09:53:06.372Z,13.70
2019-05-12T09:55:34.325Z,14.00
2019-05-12T09:58:04.568Z,14.10
2019-05-12T10:00:36.295Z,13.70
2019-05-12T10:03:08.563Z,13.70
2019-05-12T10:05:41.103Z,13.80
2019-05-12T10:08:10.368Z,13.90
2019-05-12T10:10:43.655Z,13.90
2019-05-12T10:13:13.839Z,14.10
2019-05-12T10:15:44.610Z,14.20
2019-05-12T10:18:14.938Z,14.30
2019-05-12T10:20:44.994Z,14.20
2019-05-12T10:23:20.021Z,14.30
2019-05-12T10:25:46.726Z,14.30
2019-05-12T10:28:17.064Z,14.40
2019-05-12T10:30:52.343Z,14.40
2019-05-12T10:33:18.932Z,14.40
2019-05-12T10:35:49.049Z,14.30
2019-05-12T10:38:19.371Z,14.40
2019-05-12T10:40:49.492Z,14.50
2019-05-12T10:43:19.815Z,14.50
2019-05-12T10:45:49.935Z,14.60
2019-05-12T10:48:20.053Z,14.60
2019-05-12T10:50:50.175Z,14.70
2019-05-12T10:53:20.206Z,14.80
2019-05-12T10:55:50.410Z,14.80
2019-05-12T10:58:20.531Z,14.80
2019-05-12T11:00:50.871Z,14.80
2019-05-12T11:03:20.975Z,14.80
2019-05-12T11:05:54.612Z,14.80
2019-05-12T11:08:24.502Z,14.90
2019-05-12T11:10:59.309Z,14.90
2019-05-12T11:13:25.960Z,14.90
2019-05-12T11:15:56.073Z,15.00
2019-05-12T11:18:30.301Z,15.00
2019-05-12T11:20:58.162Z,15.00
2019-05-12T11:23:28.276Z,15.00
2019-05-12T11:25:58.400Z,15.10
2019-05-12T11:28:28.717Z,15.20
2019-05-12T11:30:58.838Z,15.20
2019-05-12T11:33:28.955Z,15.20
2019-05-12T11:35:59.282Z,15.30
2019-05-12T11:38:29.400Z,15.30
2019-05-12T11:40:59.523Z,15.40
2019-05-12T11:43:29.944Z,15.40
2019-05-12T11:46:00.370Z,15.50
2019-05-12T11:48:30.695Z,15.50
2019-05-12T11:51:00.814Z,15.50
2019-05-12T11:53:32.397Z,15.50
2019-05-12T11:56:07.421Z,15.60
2019-05-12T11:58:34.244Z,15.60
2019-05-12T12:01:08.260Z,15.60
2019-05-12T12:03:37.761Z,15.70
2019-05-12T12:06:07.878Z,15.70
2019-05-12T12:08:38.257Z,15.70
2019-05-12T12:11:10.428Z,15.70
2019-05-12T12:13:40.496Z,15.80
2019-05-12T12:16:11.465Z,15.80
2019-05-12T12:18:46.691Z,15.80
2019-05-12T12:21:14.238Z,15.90
2019-05-12T12:23:50.144Z,15.90
2019-05-12T12:26:30.357Z,15.90
2019-05-12T12:28:59.647Z,15.90
2019-05-12T12:31:37.307Z,15.90
2019-05-12T12:34:02.955Z,16.00
2019-05-12T12:36:34.198Z,16.00
2019-05-12T12:39:06.247Z,16.00
2019-05-12T12:41:36.376Z,16.00
2019-05-12T12:44:06.496Z,16.10
2019-05-12T12:46:36.622Z,16.20
2019-05-12T12:49:10.343Z,16.10
2019-05-12T12:51:38.904Z,16.10
2019-05-12T12:54:09.022Z,16.00
2019-05-12T12:56:39.347Z,16.10
2019-05-12T12:59:11.916Z,16.10
2019-05-12T13:01:44.219Z,16.20
2019-05-12T13:04:14.002Z,16.20
2019-05-12T13:06:44.328Z,16.20
2019-05-12T13:09:24.210Z,16.20
2019-05-12T13:11:46.469Z,16.20
2019-05-12T13:14:16.734Z,16.20
2019-05-12T13:16:49.544Z,16.20
2019-05-12T13:19:18.839Z,16.20
2019-05-12T13:21:49.021Z,16.20
2019-05-12T13:24:19.346Z,16.20
2019-05-12T13:26:49.579Z,16.20
2019-05-12T13:29:19.721Z,16.20
2019-05-12T13:31:49.833Z,16.20
2019-05-12T13:34:19.937Z,16.20
2019-05-12T13:36:50.056Z,16.20
2019-05-12T13:39:20.380Z,16.20
2019-05-12T13:41:55.540Z,16.20
2019-05-12T13:44:24.014Z,16.20
2019-05-12T13:46:58.533Z,16.20
2019-05-12T13:49:29.953Z,16.20
2019-05-12T13:51:57.531Z,16.20
2019-05-12T13:54:29.967Z,16.20
2019-05-12T13:57:03.749Z,16.20
2019-05-12T13:59:30.814Z,16.20
2019-05-12T14:02:03.162Z,16.20
2019-05-12T14:04:33.644Z,16.20
2019-05-12T14:07:04.080Z,16.20
2019-05-12T14:09:38.604Z,16.20
2019-05-12T14:12:08.724Z,16.20
2019-05-12T14:14:38.843Z,16.20
2019-05-12T14:17:08.962Z,16.20
2019-05-12T14:19:39.081Z,16.20
2019-05-12T14:22:15.567Z,16.20
2019-05-12T14:24:42.346Z,16.20
2019-05-12T14:27:12.637Z,16.20
2019-05-12T14:29:44.096Z,16.20
2019-05-12T14:32:17.423Z,16.20
2019-05-12T14:34:45.942Z,16.10
2019-05-12T14:37:17.651Z,16.10
2019-05-12T14:39:50.251Z,16.10
2019-05-12T14:42:19.574Z,16.10
2019-05-12T14:44:49.892Z,16.10
2019-05-12T14:47:27.926Z,16.10
2019-05-12T14:49:54.123Z,16.10
2019-05-12T14:52:23.744Z,16.10
2019-05-12T14:54:54.180Z,16.00
2019-05-12T14:57:29.273Z,16.00
2019-05-12T14:59:56.758Z,16.00
2019-05-12T15:02:29.426Z,16.00
2019-05-12T15:05:00.264Z,16.00
2019-05-12T15:07:30.185Z,15.90
2019-05-12T15:10:08.394Z,15.90
2019-05-12T15:12:34.729Z,15.90
2019-05-12T15:15:08.983Z,15.80
2019-05-12T15:17:40.085Z,15.80
2019-05-12T15:20:11.023Z,15.80
2019-05-12T15:22:45.246Z,15.80
2019-05-12T15:25:14.518Z,15.80
2019-05-12T15:27:48.148Z,15.80
2019-05-12T15:30:23.642Z,15.70
2019-05-12T15:32:48.380Z,15.70
2019-05-12T15:35:18.751Z,15.80
2019-05-12T15:37:51.969Z,15.70
2019-05-12T15:40:20.578Z,15.70
2019-05-12T15:42:55.059Z,15.70
2019-05-12T15:45:23.843Z,15.70
2019-05-12T15:47:54.220Z,15.70
2019-05-12T15:50:26.126Z,15.70
2019-05-12T15:52:56.315Z,15.60
2019-05-12T15:55:32.802Z,15.60
2019-05-12T15:57:58.174Z,15.60
2019-05-12T16:00:28.420Z,15.60
2019-05-12T16:02:58.617Z,15.50
2019-05-12T16:05:31.006Z,15.50
2019-05-12T16:08:00.620Z,15.50
2019-05-12T16:10:30.820Z,15.50
2019-05-12T16:13:00.936Z,15.50
2019-05-12T16:15:31.262Z,15.50
2019-05-12T16:18:05.733Z,15.50
2019-05-12T16:20:33.435Z,15.40
2019-05-12T16:23:04.225Z,15.40
2019-05-12T16:25:34.608Z,15.30
2019-05-12T16:28:07.590Z,15.30
2019-05-12T16:30:36.489Z,15.30
2019-05-12T16:33:06.600Z,15.30
2019-05-12T16:35:36.929Z,15.30
2019-05-12T16:38:17.306Z,15.30
2019-05-12T16:40:47.997Z,15.20
2019-05-12T16:43:14.257Z,15.20
2019-05-12T16:45:43.754Z,15.20
2019-05-12T16:48:28.596Z,15.20
2019-05-12T16:50:45.628Z,15.10
2019-05-12T16:53:21.856Z,15.10
2019-05-12T16:55:49.868Z,15.00
2019-05-12T16:58:26.056Z,15.00
2019-05-12T17:00:53.438Z,15.00
2019-05-12T17:03:23.774Z,15.00
2019-05-12T17:05:57.756Z,14.90
2019-05-12T17:08:27.316Z,14.90
2019-05-12T17:11:15.123Z,14.90
2019-05-12T17:13:29.191Z,14.80
2019-05-12T17:16:00.747Z,14.80
2019-05-12T17:18:30.870Z,14.70
2019-05-12T17:21:01.020Z,14.70
2019-05-12T17:23:31.310Z,14.70
2019-05-12T17:26:03.592Z,14.60
2019-05-12T17:28:34.310Z,14.60
2019-05-12T17:31:05.149Z,14.50
2019-05-12T17:33:35.265Z,14.50
2019-05-12T17:36:11.900Z,14.60
2019-05-12T17:38:37.143Z,14.50
2019-05-12T17:41:07.267Z,14.50
2019-05-12T17:43:39.957Z,14.50
2019-05-12T17:46:11.713Z,14.40
2019-05-12T17:48:42.741Z,14.40
2019-05-12T17:51:13.662Z,14.30
2019-05-12T17:53:44.208Z,14.30
2019-05-12T17:56:14.335Z,14.30
2019-05-12T17:58:47.335Z,14.30
2019-05-12T18:01:16.202Z,14.20
2019-05-12T18:03:50.469Z,14.20
2019-05-12T18:06:20.556Z,14.20
2019-05-12T18:08:50.451Z,14.20
2019-05-12T18:11:20.574Z,14.10
2019-05-12T18:14:01.385Z,14.10
2019-05-12T18:16:24.897Z,14.10
2019-05-12T18:18:54.618Z,14.00
2019-05-12T18:21:30.820Z,14.00
2019-05-12T18:24:00.414Z,14.00
2019-05-12T18:26:28.663Z,14.00
2019-05-12T18:29:04.192Z,13.90
2019-05-12T18:31:34.140Z,13.90
2019-05-12T18:34:04.984Z,13.90
2019-05-12T18:36:35.491Z,13.80
2019-05-12T18:39:11.549Z,13.80
2019-05-12T18:41:40.026Z,13.80
2019-05-12T18:44:10.143Z,13.70
2019-05-12T18:46:45.124Z,13.70
2019-05-12T18:49:15.626Z,13.70
2019-05-12T18:51:48.912Z,13.60
2019-05-12T18:54:15.740Z,13.60
2019-05-12T18:56:45.860Z,13.60
2019-05-12T18:59:16.464Z,13.60
2019-05-12T19:01:47.133Z,13.60
2019-05-12T19:04:17.449Z,13.50
2019-05-12T19:06:47.565Z,13.50
2019-05-12T19:09:17.889Z,13.50
2019-05-12T19:11:48.195Z,13.40
2019-05-12T19:14:18.355Z,13.40
2019-05-12T19:16:48.711Z,13.40
2019-05-12T19:19:20.066Z,13.40
2019-05-12T19:21:58.842Z,13.30
2019-05-12T19:24:22.295Z,13.30
2019-05-12T19:26:54.108Z,13.30
2019-05-12T19:29:24.311Z,13.30
2019-05-12T19:31:57.806Z,13.20
2019-05-12T19:34:26.544Z,13.20
2019-05-12T19:36:56.981Z,13.10
2019-05-12T19:39:27.308Z,13.10
2019-05-12T19:41:57.629Z,13.10
2019-05-12T19:44:30.693Z,13.10
2019-05-12T19:46:59.711Z,13.10
2019-05-12T19:49:45.990Z,13.10
2019-05-12T19:52:03.414Z,13.10
2019-05-12T19:54:36.124Z,13.00
2019-05-12T19:57:05.110Z,13.00
2019-05-12T19:59:35.224Z,13.00
2019-05-12T20:02:06.367Z,13.00
2019-05-12T20:04:42.166Z,13.00
2019-05-12T20:07:08.242Z,12.90
2019-05-12T20:09:38.362Z,12.90
2019-05-12T20:12:15.627Z,12.90
2019-05-12T20:14:40.442Z,12.80
2019-05-12T20:17:10.561Z,12.90
2019-05-12T20:19:43.468Z,12.80
2019-05-12T20:22:13.830Z,12.80
2019-05-12T20:24:44.468Z,12.70
2019-05-12T20:27:17.275Z,12.80
2019-05-12T20:29:46.687Z,12.70
2019-05-12T20:32:16.809Z,12.70
2019-05-12T20:34:51.793Z,12.70
2019-05-12T20:37:18.687Z,12.70
2019-05-12T20:39:51.101Z,12.60
2019-05-12T20:42:23.647Z,12.60
2019-05-12T20:45:00.698Z,12.60
2019-05-12T20:47:25.307Z,12.60
2019-05-12T20:49:55.422Z,12.50
2019-05-12T20:52:25.749Z,12.50
2019-05-12T20:54:59.729Z,12.50
2019-05-12T20:57:27.419Z,12.50
2019-05-12T20:59:58.117Z,12.40
2019-05-12T21:02:29.017Z,12.40
2019-05-12T21:05:00.942Z,12.40
2019-05-12T21:07:33.594Z,12.40
2019-05-12T21:10:04.082Z,12.40
2019-05-12T21:12:34.285Z,12.30
2019-05-12T21:15:13.741Z,12.30
2019-05-12T21:17:42.943Z,12.30
2019-05-12T21:20:11.753Z,12.30
2019-05-12T21:22:40.696Z,12.30
2019-05-12T21:25:12.672Z,12.20
2019-05-12T21:27:47.491Z,12.20
2019-05-12T21:30:15.602Z,12.20
2019-05-12T21:32:55.478Z,12.20
2019-05-12T21:35:22.214Z,12.20
2019-05-12T21:37:48.989Z,12.10
2019-05-12T21:40:24.139Z,12.10
2019-05-12T21:42:50.658Z,12.10
2019-05-12T21:45:26.489Z,12.10
2019-05-12T21:47:54.504Z,12.10
2019-05-12T21:50:32.551Z,12.10
2019-05-12T21:52:59.605Z,12.10
2019-05-12T21:55:28.013Z,12.00
2019-05-12T21:58:01.710Z,12.00
2019-05-12T22:00:34.904Z,12.00
2019-05-12T22:03:08.282Z,11.90
2019-05-12T22:05:50.625Z,11.90
2019-05-12T22:08:17.673Z,11.90
2019-05-12T22:10:43.726Z,11.90
2019-05-12T22:13:17.064Z,11.90
2019-05-12T22:15:45.762Z,11.80
2019-05-12T22:18:15.884Z,11.80
2019-05-12T22:20:46.385Z,11.80
2019-05-12T22:23:16.936Z,11.80
2019-05-12T22:25:49.162Z,11.80
2019-05-12T22:28:18.814Z,11.70
2019-05-12T22:30:48.935Z,11.70
2019-05-12T22:33:19.052Z,11.60
2019-05-12T22:36:01.854Z,11.60
2019-05-12T22:38:21.166Z,11.60
2019-05-12T22:40:56.120Z,11.50
2019-05-12T22:43:23.877Z,11.60
2019-05-12T22:45:54.770Z,11.50
2019-05-12T22:48:29.937Z,11.50
2019-05-12T22:50:57.259Z,11.40
2019-05-12T22:53:30.079Z,11.40
2019-05-12T22:56:05.115Z,11.40
2019-05-12T22:58:33.826Z,11.40
2019-05-12T23:01:06.540Z,11.40
2019-05-12T23:03:36.865Z,11.40
2019-05-12T23:06:20.201Z,11.30
2019-05-12T23:08:38.829Z,11.30
2019-05-12T23:11:10.092Z,11.30
2019-05-12T23:13:42.745Z,11.30
2019-05-12T23:16:14.017Z,11.30
2019-05-12T23:18:44.446Z,11.20
2019-05-12T23:21:17.454Z,11.20
2019-05-12T23:23:50.011Z,11.20
2019-05-12T23:26:18.179Z,11.10
2019-05-12T23:28:50.290Z,11.10
2019-05-12T23:31:25.841Z,11.10
2019-05-12T23:33:54.355Z,11.10
2019-05-12T23:36:35.813Z,11.10
2019-05-12T23:39:00.327Z,11.00
2019-05-12T23:41:29.559Z,11.00
2019-05-12T23:43:59.620Z,11.00
2019-05-12T23:46:31.287Z,11.00
2019-05-12T23:49:03.653Z,11.00
2019-05-12T23:51:34.108Z,11.00
2019-05-12T23:54:04.495Z,10.90
2019-05-12T23:56:34.763Z,10.90
2019-05-12T23:59:04.884Z,10.90
